createdAt,value
2023-03-01T00:00:08.868Z,24.70
2023-03-01T00:02:20.699Z,25.30
2023-03-01T00:04:12.438Z,24.90
2023-03-01T00:06:04.860Z,26.20
2023-03-01T00:07:56.727Z,27.50
2023-03-01T00:09:48.358Z,29.40
2023-03-01T00:11:40.117Z,27.10
2023-03-01T00:13:31.837Z,28.00
2023-03-01T00:15:23.486Z,29.90
2023-03-01T00:17:14.613Z,25.90
2023-03-01T00:19:07.894Z,27.30
2023-03-01T00:22:50.813Z,23.90
2023-03-01T00:24:41.960Z,26.30
2023-03-01T00:26:33.601Z,25.80
2023-03-01T00:28:25.262Z,29.70
2023-03-01T00:30:16.865Z,28.50
2023-03-01T00:32:08.581Z,27.30
2023-03-01T00:34:02.763Z,28.60
2023-03-01T00:35:53.985Z,31.40
2023-03-01T00:37:45.717Z,27.70
2023-03-01T00:39:37.543Z,26.60
2023-03-01T00:41:29.489Z,28.50
2023-03-01T00:43:21.046Z,25.50
2023-03-01T00:45:14.604Z,21.80
2023-03-01T00:47:06.067Z,28.20
2023-03-01T00:48:57.398Z,26.20
2023-03-01T00:50:48.572Z,30.70
2023-03-01T00:52:40.406Z,30.60
2023-03-01T00:54:31.959Z,31.50
2023-03-01T00:56:24.169Z,30.00
2023-03-01T00:58:15.818Z,29.50
2023-03-01T01:00:10.677Z,28.60
2023-03-01T01:02:02.441Z,28.90
2023-03-01T01:03:59.615Z,30.30
2023-03-01T01:05:52.024Z,28.50
2023-03-01T01:07:43.246Z,26.50
2023-03-01T01:09:35.410Z,28.90
2023-03-01T01:11:29.909Z,28.80
2023-03-01T01:13:22.676Z,31.80
2023-03-01T01:15:17.556Z,34.70
2023-03-01T01:17:10.486Z,30.20
2023-03-01T01:19:02.567Z,32.80
2023-03-01T01:20:53.988Z,31.60
2023-03-01T01:22:45.540Z,31.20
2023-03-01T01:24:37.593Z,30.30
2023-03-01T01:26:32.264Z,31.40
2023-03-01T01:28:24.084Z,29.60
2023-03-01T01:30:15.381Z,29.30
2023-03-01T01:32:06.654Z,29.40
2023-03-01T01:33:58.384Z,29.40
2023-03-01T01:35:49.867Z,29.60
2023-03-01T01:37:40.926Z,29.00
2023-03-01T01:39:32.184Z,30.60
2023-03-01T01:41:25.278Z,33.70
2023-03-01T01:43:29.448Z,27.40
2023-03-01T01:45:46.172Z,29.60
2023-03-01T01:47:38.094Z,29.00
2023-03-01T01:49:33.696Z,29.80
2023-03-01T01:52:47.539Z,30.80
2023-03-01T01:54:52.596Z,29.50
2023-03-01T01:56:46.520Z,28.00
2023-03-01T01:58:38.658Z,25.90
2023-03-01T02:00:31.465Z,23.70
2023-03-01T02:02:23.081Z,21.20
2023-03-01T02:04:15.135Z,25.90
2023-03-01T02:06:22.375Z,33.00
2023-03-01T02:08:16.124Z,30.30
2023-03-01T02:10:08.040Z,28.80
2023-03-01T02:12:00.434Z,29.20
2023-03-01T02:13:52.565Z,30.50
2023-03-01T02:15:45.243Z,29.80
2023-03-01T02:17:37.247Z,32.40
2023-03-01T02:19:52.651Z,30.60
2023-03-01T02:22:00.246Z,29.60
2023-03-01T02:23:51.909Z,29.30
2023-03-01T02:25:59.898Z,30.40
2023-03-01T02:37:36.683Z,31.50
2023-03-01T02:39:49.401Z,33.20
2023-03-01T02:41:45.152Z,29.50
2023-03-01T02:43:37.460Z,29.40
2023-03-01T02:45:28.916Z,26.80
2023-03-01T02:47:20.590Z,25.20
2023-03-01T02:49:30.414Z,24.00
2023-03-01T02:51:34.698Z,27.30
2023-03-01T02:53:49.516Z,30.30
2023-03-01T02:55:41.545Z,26.90
2023-03-01T02:57:34.607Z,30.70
2023-03-01T02:59:32.021Z,29.20
2023-03-01T03:01:23.513Z,24.70
2023-03-01T03:03:17.465Z,20.90
2023-03-01T03:05:13.759Z,25.70
2023-03-01T03:07:05.190Z,27.20
2023-03-01T03:08:56.791Z,29.10
2023-03-01T03:10:48.613Z,29.10
2023-03-01T03:12:40.256Z,29.80
2023-03-01T03:14:35.968Z,29.20
2023-03-01T03:16:27.470Z,30.30
2023-03-01T03:18:19.941Z,28.60
2023-03-01T03:20:18.211Z,27.10
2023-03-01T03:24:02.108Z,24.60
2023-03-01T03:25:53.480Z,27.40
2023-03-01T03:27:46.348Z,27.50
2023-03-01T03:29:38.271Z,28.50
2023-03-01T03:31:30.181Z,29.60
2023-03-01T03:33:21.758Z,28.30
2023-03-01T03:35:13.419Z,30.10
2023-03-01T03:37:25.185Z,27.60
2023-03-01T03:39:18.274Z,28.20
2023-03-01T03:41:11.121Z,29.80
2023-03-01T03:43:04.070Z,28.50
2023-03-01T03:44:55.890Z,27.00
2023-03-01T03:46:47.853Z,29.30
2023-03-01T03:48:42.434Z,29.10
2023-03-01T03:50:34.357Z,28.80
2023-03-01T03:52:26.150Z,27.80
2023-03-01T03:54:18.257Z,30.40
2023-03-01T03:56:10.218Z,29.60
2023-03-01T03:58:08.081Z,30.10
2023-03-01T04:00:00.089Z,28.50
2023-03-01T04:01:52.093Z,26.70
2023-03-01T04:03:47.666Z,27.00
2023-03-01T04:05:40.452Z,21.90
2023-03-01T04:07:32.146Z,22.50
2023-03-01T04:09:23.945Z,26.00
2023-03-01T04:11:27.895Z,25.80
2023-03-01T04:13:21.844Z,26.40
2023-03-01T04:15:14.211Z,26.40
2023-03-01T04:17:06.386Z,24.20
2023-03-01T04:19:00.793Z,23.80
2023-03-01T04:20:56.525Z,27.50
2023-03-01T06:01:52.463Z,28.30
2023-03-01T06:03:44.777Z,28.30
2023-03-01T06:05:36.662Z,26.10
2023-03-01T06:07:28.497Z,30.20
2023-03-01T06:09:20.275Z,30.10
2023-03-01T06:11:11.916Z,29.70
2023-03-01T06:13:03.650Z,30.40
2023-03-01T06:14:55.196Z,28.40
2023-03-01T06:16:46.897Z,32.60
2023-03-01T06:18:39.288Z,29.90
2023-03-01T06:20:31.124Z,30.70
2023-03-01T06:22:23.161Z,30.80
2023-03-01T06:24:14.958Z,29.20
2023-03-01T06:26:08.646Z,30.20
2023-03-01T06:28:00.408Z,28.00
2023-03-01T06:29:52.178Z,26.10
2023-03-01T06:31:43.531Z,28.20
2023-03-01T06:33:35.714Z,30.10
2023-03-01T06:35:31.114Z,29.10
2023-03-01T06:37:22.775Z,28.40
2023-03-01T06:39:14.409Z,25.00
2023-03-01T06:41:05.940Z,27.30
2023-03-01T06:42:58.376Z,29.60
2023-03-01T06:44:50.303Z,30.30
2023-03-01T06:46:42.785Z,27.10
2023-03-01T06:48:35.131Z,28.20
2023-03-01T06:52:18.794Z,16.60
2023-03-01T06:54:10.850Z,25.40
2023-03-01T06:56:02.744Z,23.30
2023-03-01T06:57:58.179Z,31.10
2023-03-01T06:59:49.951Z,23.50
2023-03-01T07:01:41.879Z,15.80
2023-03-01T07:03:34.015Z,18.00
2023-03-01T07:05:25.625Z,15.50
2023-03-01T07:07:19.157Z,26.90
2023-03-01T07:09:10.976Z,25.40
2023-03-01T07:11:04.404Z,27.90
2023-03-01T07:12:58.011Z,27.60
2023-03-01T07:14:49.525Z,26.80
2023-03-01T07:16:41.033Z,27.80
2023-03-01T07:18:33.108Z,27.60
2023-03-01T07:20:26.765Z,26.90
2023-03-01T07:22:18.619Z,23.70
2023-03-01T07:24:16.519Z,25.00
2023-03-01T07:26:08.146Z,25.00
2023-03-01T07:27:59.811Z,25.30
2023-03-01T07:29:50.890Z,27.30
2023-03-01T07:31:42.673Z,25.50
2023-03-01T07:33:33.943Z,22.00
2023-03-01T07:35:27.162Z,28.40
2023-03-01T07:37:18.853Z,22.30
2023-03-01T07:39:11.612Z,25.30
2023-03-01T07:42:57.596Z,28.80
2023-03-01T07:44:49.286Z,15.60
2023-03-01T07:46:40.525Z,26.70
2023-03-01T07:48:33.342Z,26.50
2023-03-01T07:50:24.713Z,22.90
2023-03-01T07:52:16.374Z,23.80
2023-03-01T07:54:08.150Z,26.90
2023-03-01T07:56:07.880Z,24.60
2023-03-01T07:57:59.575Z,21.20
2023-03-01T07:59:50.890Z,25.20
2023-03-01T08:01:42.617Z,23.80
2023-03-01T08:03:35.219Z,25.80
2023-03-01T08:05:26.895Z,23.00
2023-03-01T08:07:18.591Z,22.10
2023-03-01T08:09:10.480Z,22.90
2023-03-01T08:11:03.528Z,25.40
2023-03-01T08:12:54.997Z,22.80
2023-03-01T08:14:46.553Z,25.10
2023-03-01T08:16:37.908Z,19.20
2023-03-01T08:18:29.833Z,20.50
2023-03-01T08:20:21.955Z,18.90
2023-03-01T08:22:13.570Z,26.70
2023-03-01T08:24:07.030Z,16.90
2023-03-01T08:26:13.294Z,23.60
2023-03-01T08:28:05.132Z,22.40
2023-03-01T08:29:56.506Z,22.30
2023-03-01T08:31:48.927Z,20.20
2023-03-01T08:33:40.523Z,20.10
2023-03-01T08:35:32.330Z,20.00
2023-03-01T08:37:23.801Z,21.80
2023-03-01T08:39:17.748Z,23.20
2023-03-01T08:41:09.106Z,23.90
2023-03-01T08:43:00.781Z,24.30
2023-03-01T08:44:52.584Z,22.20
2023-03-01T08:46:45.008Z,20.60
2023-03-01T08:48:36.369Z,22.60
2023-03-01T08:50:28.094Z,18.30
2023-03-01T08:54:40.575Z,22.50
2023-03-01T08:56:30.701Z,21.40
2023-03-01T08:58:20.903Z,22.00
2023-03-01T09:00:11.662Z,14.70
2023-03-01T09:02:02.467Z,13.60
2023-03-01T09:03:53.212Z,15.00
2023-03-01T09:05:46.308Z,13.40
2023-03-01T09:07:36.589Z,15.60
2023-03-01T09:09:27.146Z,18.20
2023-03-01T09:11:20.247Z,18.70
2023-03-01T09:13:10.947Z,19.00
2023-03-01T09:15:01.231Z,19.80
2023-03-01T09:16:52.133Z,19.00
2023-03-01T09:18:42.441Z,18.00
2023-03-01T09:20:33.115Z,18.60
2023-03-01T09:22:23.570Z,15.70
2023-03-01T09:24:15.068Z,16.20
2023-03-01T09:36:15.977Z,17.20
2023-03-01T09:38:07.940Z,16.60
2023-03-01T09:39:59.512Z,16.60
2023-03-01T09:42:01.173Z,17.10
2023-03-01T09:43:57.933Z,16.20
2023-03-01T09:45:52.176Z,16.70
2023-03-01T09:47:44.176Z,17.80
2023-03-01T09:49:38.110Z,16.20
2023-03-01T09:51:35.480Z,17.40
2023-03-01T09:53:33.400Z,19.90
2023-03-01T09:55:33.050Z,18.90
2023-03-01T09:57:37.873Z,15.80
2023-03-01T10:00:10.493Z,15.80
2023-03-01T10:02:06.303Z,11.90
2023-03-01T10:04:10.472Z,16.30
2023-03-01T10:06:04.986Z,15.10
2023-03-01T10:08:03.898Z,14.90
2023-03-01T10:09:55.812Z,16.90
2023-03-01T10:11:51.130Z,14.90
2023-03-01T10:14:00.791Z,14.70
2023-03-01T10:15:57.217Z,14.20
2023-03-01T10:18:08.824Z,13.80
2023-03-01T10:20:22.635Z,14.70
2023-03-01T10:22:29.507Z,17.10
2023-03-01T10:24:22.796Z,14.50
2023-03-01T10:26:46.086Z,15.90
2023-03-01T10:28:46.811Z,16.10
2023-03-01T10:30:42.652Z,15.10
2023-03-01T10:32:34.944Z,15.00
2023-03-01T10:34:30.709Z,14.80
2023-03-01T10:36:23.721Z,16.50
2023-03-01T10:38:17.303Z,14.70
2023-03-01T10:40:10.851Z,14.90
2023-03-01T10:42:06.420Z,14.70
2023-03-01T10:44:01.319Z,14.20
2023-03-01T10:45:52.852Z,14.50
2023-03-01T10:47:48.239Z,15.40
2023-03-01T10:49:39.976Z,14.30
2023-03-01T10:51:32.262Z,14.80
2023-03-01T10:53:27.451Z,14.60
2023-03-01T10:55:40.734Z,13.80
2023-03-01T10:57:41.305Z,14.20
2023-03-01T10:59:39.474Z,15.20
2023-03-01T11:01:34.624Z,13.20
2023-03-01T11:03:26.795Z,14.50
2023-03-01T11:05:22.533Z,12.50
2023-03-01T11:07:14.011Z,13.30
2023-03-01T11:09:23.012Z,11.90
2023-03-01T11:11:23.832Z,13.40
2023-03-01T11:13:18.268Z,14.00
2023-03-01T11:15:22.221Z,14.40
2023-03-01T11:17:18.410Z,11.10
2023-03-01T11:19:10.206Z,12.40
2023-03-01T11:21:03.156Z,12.80
2023-03-01T11:22:56.929Z,12.00
2023-03-01T11:25:07.139Z,11.60
2023-03-01T11:27:04.253Z,11.50
2023-03-01T11:28:59.134Z,10.40
2023-03-01T11:31:08.997Z,12.50
2023-03-01T11:33:18.276Z,12.40
2023-03-01T11:35:36.758Z,11.90
2023-03-01T11:37:46.966Z,11.40
2023-03-01T11:39:42.644Z,11.20
2023-03-01T11:41:37.779Z,12.00
2023-03-01T11:43:42.363Z,10.40
2023-03-01T11:45:50.762Z,10.20
2023-03-01T11:48:04.372Z,10.20
2023-03-01T11:50:07.194Z,10.60
2023-03-01T11:52:18.488Z,10.70
2023-03-01T11:54:22.224Z,10.20
2023-03-01T11:56:35.047Z,9.30
2023-03-01T11:58:47.916Z,9.80
2023-03-01T12:00:51.954Z,9.90
2023-03-01T12:02:52.527Z,9.90
2023-03-01T12:04:53.234Z,10.30
2023-03-01T12:06:58.406Z,9.50
2023-03-01T12:09:17.880Z,11.70
2023-03-01T12:11:24.114Z,10.20
2023-03-01T12:13:21.883Z,9.60
2023-03-01T12:15:50.788Z,10.00
2023-03-01T12:18:29.504Z,10.50
2023-03-01T12:20:23.761Z,10.10
2023-03-01T12:22:22.926Z,10.50
2023-03-01T12:24:34.059Z,10.70
2023-03-01T12:26:36.069Z,10.10
2023-03-01T12:28:39.648Z,8.90
2023-03-01T12:30:40.141Z,8.90
2023-03-01T12:32:36.620Z,10.30
2023-03-01T12:34:54.229Z,9.40
2023-03-01T12:37:15.867Z,8.90
2023-03-01T12:51:21.180Z,9.20
2023-03-01T12:53:26.967Z,8.30
2023-03-01T12:55:26.923Z,7.80
2023-03-01T12:57:43.277Z,7.70
2023-03-01T13:00:08.472Z,7.00
2023-03-01T13:02:06.199Z,6.90
2023-03-01T13:04:11.583Z,6.40
2023-03-01T13:06:13.293Z,6.50
2023-03-01T13:08:14.043Z,5.60
2023-03-01T13:10:24.817Z,6.20
2023-03-01T13:12:49.228Z,4.40
2023-03-01T13:14:45.753Z,4.00
2023-03-01T13:16:38.557Z,4.50
2023-03-01T13:18:30.493Z,4.60
2023-03-01T13:20:25.237Z,4.70
2023-03-01T13:22:33.482Z,5.10
2023-03-01T13:24:43.144Z,5.20
2023-03-01T13:39:00.438Z,6.30
2023-03-01T13:40:51.820Z,5.80
2023-03-01T13:42:56.254Z,6.40
2023-03-01T13:44:54.960Z,5.30
2023-03-01T13:46:47.456Z,6.40
2023-03-01T13:48:39.839Z,6.00
2023-03-01T13:50:40.314Z,5.40
2023-03-01T13:52:36.083Z,6.20
2023-03-01T13:54:31.488Z,7.40
2023-03-01T13:56:29.400Z,6.20
2023-03-01T13:58:33.140Z,4.80
2023-03-01T14:00:33.726Z,5.50
2023-03-01T14:02:25.318Z,5.50
2023-03-01T14:04:26.927Z,5.40
2023-03-01T14:06:22.897Z,5.40
2023-03-01T14:08:26.192Z,6.20
2023-03-01T14:10:18.963Z,6.20
2023-03-01T14:12:48.208Z,6.80
2023-03-01T14:14:45.856Z,5.60
2023-03-01T14:16:55.790Z,8.00
2023-03-01T14:18:59.751Z,8.00
2023-03-01T14:22:46.276Z,6.70
2023-03-01T14:24:41.743Z,6.50
2023-03-01T14:26:34.827Z,8.50
2023-03-01T14:28:30.147Z,7.40
2023-03-01T14:30:34.839Z,7.00
2023-03-01T14:32:29.238Z,7.20
2023-03-01T14:34:23.822Z,8.30
2023-03-01T14:36:15.405Z,7.60
2023-03-01T14:38:07.443Z,7.10
2023-03-01T14:40:01.222Z,7.50
2023-03-01T14:41:53.417Z,6.70
2023-03-01T14:45:38.144Z,6.80
2023-03-01T14:47:31.522Z,7.10
2023-03-01T14:49:25.660Z,7.00
2023-03-01T14:51:17.388Z,6.80
2023-03-01T14:53:17.752Z,7.50
2023-03-01T14:55:27.478Z,7.00
2023-03-01T14:57:24.643Z,7.70
2023-03-01T14:59:16.512Z,9.10
2023-03-01T15:01:09.718Z,6.80
2023-03-01T15:03:10.903Z,7.30
2023-03-01T15:05:09.172Z,6.40
2023-03-01T15:07:06.388Z,7.00
2023-03-01T15:08:59.023Z,7.50
2023-03-01T15:10:59.663Z,7.60
2023-03-01T15:12:53.379Z,7.30
2023-03-01T15:14:52.178Z,7.90
2023-03-01T15:16:50.489Z,8.60
2023-03-01T15:18:51.453Z,7.80
2023-03-01T15:20:43.299Z,7.50
2023-03-01T15:22:36.141Z,8.40
2023-03-01T15:24:29.917Z,8.10
2023-03-01T15:26:34.254Z,8.00
2023-03-01T15:28:27.359Z,8.40
2023-03-01T15:30:22.979Z,7.20
2023-03-01T15:32:31.405Z,7.20
2023-03-01T15:34:29.190Z,6.70
2023-03-01T15:36:32.456Z,7.30
2023-03-01T15:38:50.599Z,8.20
2023-03-01T15:40:50.557Z,8.40
2023-03-01T15:42:42.205Z,9.00
2023-03-01T15:44:43.377Z,9.60
2023-03-01T15:46:38.782Z,8.70
2023-03-01T15:48:30.463Z,9.70
2023-03-01T15:50:57.976Z,9.70
2023-03-01T15:52:50.566Z,8.80
2023-03-01T15:54:42.078Z,9.30
2023-03-01T15:56:33.913Z,10.00
2023-03-01T15:58:26.021Z,10.40
2023-03-01T16:00:18.564Z,11.70
2023-03-01T16:02:13.560Z,12.20
2023-03-01T16:04:05.475Z,11.30
2023-03-01T16:05:57.161Z,12.20
2023-03-01T16:07:48.745Z,10.70
2023-03-01T16:09:40.122Z,13.30
2023-03-01T16:11:33.678Z,13.60
2023-03-01T16:13:28.358Z,13.00
2023-03-01T16:15:23.863Z,13.60
2023-03-01T16:17:16.543Z,13.70
2023-03-01T16:19:08.218Z,13.50
2023-03-01T16:21:00.586Z,13.90
2023-03-01T16:22:52.360Z,14.00
2023-03-01T16:24:44.032Z,14.00
2023-03-01T16:26:37.200Z,14.90
2023-03-01T16:28:30.227Z,15.00
2023-03-01T16:30:23.377Z,14.80
2023-03-01T16:32:15.345Z,15.00
2023-03-01T16:34:07.167Z,16.50
2023-03-01T16:36:01.230Z,15.70
2023-03-01T16:37:55.071Z,18.80
2023-03-01T16:39:46.949Z,17.60
2023-03-01T16:41:38.239Z,17.60
2023-03-01T16:43:31.570Z,18.40
2023-03-01T16:45:24.917Z,17.40
2023-03-01T16:47:16.726Z,19.10
2023-03-01T16:49:08.697Z,19.90
2023-03-01T16:51:01.432Z,23.40
2023-03-01T16:52:53.054Z,21.40
2023-03-01T16:54:44.718Z,23.10
2023-03-01T16:56:38.600Z,28.10
2023-03-01T16:58:30.489Z,28.70
2023-03-01T17:09:49.284Z,29.80
2023-03-01T17:11:39.376Z,28.60
2023-03-01T17:13:30.063Z,27.80
2023-03-01T17:15:20.468Z,28.70
2023-03-01T17:17:11.573Z,30.30
2023-03-01T17:19:02.656Z,32.60
2023-03-01T17:20:53.160Z,28.70
2023-03-01T17:22:43.504Z,26.20
2023-03-01T17:24:38.001Z,28.30
2023-03-01T17:26:30.457Z,24.90
2023-03-01T17:28:25.551Z,24.50
2023-03-01T17:30:16.115Z,20.30
2023-03-01T17:32:07.207Z,17.80
2023-03-01T17:33:59.859Z,19.80
2023-03-01T17:35:51.333Z,24.10
2023-03-01T17:37:45.823Z,24.50
2023-03-01T17:39:37.099Z,21.40
2023-03-01T17:41:28.089Z,23.10
2023-03-01T17:43:19.520Z,23.90
2023-03-01T17:45:10.110Z,23.70
2023-03-01T17:47:02.051Z,22.50
2023-03-01T17:48:52.444Z,22.90
2023-03-01T17:50:42.911Z,25.20
2023-03-01T17:52:33.712Z,25.10
2023-03-01T17:54:24.406Z,26.80
2023-03-01T17:56:15.549Z,27.30
2023-03-01T17:58:06.671Z,28.00
2023-03-01T17:59:57.032Z,30.90
2023-03-01T18:01:47.608Z,29.00
2023-03-01T18:03:37.965Z,26.80
2023-03-01T18:05:34.734Z,32.00
2023-03-01T18:07:26.714Z,32.60
2023-03-01T18:09:17.479Z,33.60
2023-03-01T18:11:09.257Z,36.00
2023-03-01T18:13:00.057Z,43.90
2023-03-01T18:14:53.053Z,39.70
2023-03-01T18:16:43.551Z,45.70
2023-03-01T18:18:34.065Z,42.00
2023-03-01T18:20:24.534Z,44.00
2023-03-01T18:22:15.485Z,44.80
2023-03-01T18:24:06.105Z,46.00
2023-03-01T18:26:10.308Z,43.50
2023-03-01T18:28:00.977Z,42.10
2023-03-01T18:29:51.796Z,41.50
2023-03-01T18:31:42.663Z,46.20
2023-03-01T18:33:32.827Z,46.20
2023-03-01T18:35:23.545Z,41.10
2023-03-01T18:37:14.111Z,38.80
2023-03-01T18:39:06.227Z,40.30
2023-03-01T18:40:57.016Z,39.00
2023-03-01T18:42:47.245Z,37.70
2023-03-01T18:44:38.057Z,37.10
2023-03-01T18:46:28.578Z,36.00
2023-03-01T18:48:19.195Z,35.80
2023-03-01T18:50:10.782Z,35.20
2023-03-01T18:52:01.334Z,37.10
2023-03-01T18:53:51.458Z,35.80
2023-03-01T18:55:41.938Z,35.70
2023-03-01T18:57:32.082Z,34.10
2023-03-01T18:59:22.552Z,38.50
2023-03-01T19:01:18.073Z,37.30
2023-03-01T19:03:10.703Z,39.30
2023-03-01T19:05:01.029Z,41.20
2023-03-01T19:06:51.084Z,38.10
2023-03-01T19:08:42.549Z,35.80
2023-03-01T19:10:32.445Z,34.20
2023-03-01T19:12:22.877Z,33.80
2023-03-01T19:14:12.936Z,32.90
2023-03-01T19:16:10.111Z,35.50
2023-03-01T19:18:01.506Z,31.90
2023-03-01T19:19:51.730Z,31.00
2023-03-01T19:21:42.049Z,29.60
2023-03-01T19:23:36.198Z,31.20
2023-03-01T19:25:26.636Z,30.80
2023-03-01T19:27:17.146Z,31.10
2023-03-01T19:29:10.189Z,30.60
2023-03-01T19:31:02.588Z,30.30
2023-03-01T19:32:53.772Z,30.40
2023-03-01T19:34:46.097Z,30.10
2023-03-01T19:36:36.434Z,32.40
2023-03-01T19:38:28.401Z,34.80
2023-03-01T19:40:18.977Z,33.80
2023-03-01T19:42:11.088Z,32.60
2023-03-01T19:44:04.002Z,33.10
2023-03-01T19:45:55.142Z,28.90
2023-03-01T19:47:47.467Z,27.40
2023-03-01T19:49:37.644Z,26.60
2023-03-01T19:51:28.241Z,27.40
2023-03-01T19:53:18.676Z,29.10
2023-03-01T19:55:10.141Z,28.40
2023-03-01T19:57:00.711Z,33.40
2023-03-01T19:58:59.636Z,27.80
2023-03-01T20:00:56.663Z,30.80
2023-03-01T20:02:47.008Z,32.80
2023-03-01T20:04:37.474Z,29.40
2023-03-01T20:06:29.433Z,32.20
2023-03-01T20:08:19.577Z,29.00
2023-03-01T20:10:10.890Z,29.80
2023-03-01T20:12:00.890Z,30.80
2023-03-01T20:13:50.859Z,32.80
2023-03-01T20:15:43.185Z,33.70
2023-03-01T20:17:33.230Z,31.20
2023-03-01T20:19:23.626Z,31.70
2023-03-01T20:21:24.771Z,30.90
2023-03-01T20:23:15.804Z,32.10
2023-03-01T20:25:07.198Z,35.80
2023-03-01T20:26:58.134Z,34.40
2023-03-01T20:28:50.498Z,35.50
2023-03-01T20:30:41.054Z,39.10
2023-03-01T20:32:32.744Z,36.00
2023-03-01T20:34:22.954Z,38.20
2023-03-01T20:36:13.095Z,43.70
2023-03-01T20:38:03.687Z,45.90
2023-03-01T20:39:54.748Z,38.30
2023-03-01T20:41:55.350Z,40.00
2023-03-01T20:43:53.586Z,40.80
2023-03-01T20:47:34.623Z,36.00
2023-03-01T20:49:25.128Z,42.50
2023-03-01T20:51:15.875Z,40.20
2023-03-01T20:53:06.267Z,37.90
2023-03-01T20:54:56.348Z,42.90
2023-03-01T20:56:47.012Z,42.80
2023-03-01T20:58:38.082Z,41.80
2023-03-01T21:00:28.798Z,42.30
2023-03-01T21:02:19.043Z,46.10
2023-03-01T21:04:09.383Z,44.60
2023-03-01T21:06:01.772Z,44.90
2023-03-01T21:07:51.829Z,45.40
2023-03-01T21:09:44.134Z,47.10
2023-03-01T21:11:34.491Z,51.50
2023-03-01T21:13:26.313Z,50.90
2023-03-01T21:15:28.385Z,51.30
2023-03-01T21:17:19.338Z,48.40
2023-03-01T21:19:10.444Z,52.30
2023-03-01T21:21:05.157Z,50.30
2023-03-01T21:22:55.394Z,51.60
2023-03-01T21:24:45.562Z,53.10
2023-03-01T21:26:36.081Z,52.70
2023-03-01T21:28:26.887Z,58.20
2023-03-01T21:30:17.284Z,53.70
2023-03-01T21:32:08.345Z,51.90
2023-03-01T21:33:59.649Z,48.90
2023-03-01T21:35:49.944Z,46.50
2023-03-01T21:37:40.329Z,47.00
2023-03-01T21:39:30.783Z,51.80
2023-03-01T21:41:26.098Z,49.20
2023-03-01T21:43:16.558Z,44.70
2023-03-01T21:45:07.220Z,45.70
2023-03-01T21:46:58.375Z,44.50
2023-03-01T21:48:49.476Z,45.10
2023-03-01T21:50:39.562Z,40.00
2023-03-01T21:52:29.501Z,42.50
2023-03-01T21:54:19.768Z,45.60
2023-03-01T21:56:15.079Z,41.30
2023-03-01T21:58:05.373Z,41.20
2023-03-01T21:59:55.465Z,45.40
2023-03-01T22:01:46.204Z,47.00
2023-03-01T22:03:44.533Z,45.50
2023-03-01T22:05:34.740Z,43.60
2023-03-01T22:07:24.884Z,46.40
2023-03-01T22:09:16.103Z,48.30
2023-03-01T22:11:06.201Z,48.30
2023-03-01T22:12:57.137Z,45.30
2023-03-01T22:14:47.379Z,43.70
2023-03-01T22:16:39.359Z,44.60
2023-03-01T22:18:29.494Z,46.10
2023-03-01T22:20:19.767Z,45.70
2023-03-01T22:22:09.871Z,46.20
2023-03-01T22:24:00.001Z,48.70
2023-03-01T22:25:50.160Z,46.50
2023-03-01T22:27:40.173Z,41.90
2023-03-01T22:29:30.359Z,43.60
2023-03-01T22:31:20.746Z,44.30
2023-03-01T22:33:10.798Z,39.10
2023-03-01T22:35:00.622Z,36.40
2023-03-01T22:36:50.728Z,38.20
2023-03-01T22:38:41.258Z,47.30
2023-03-01T22:40:31.273Z,47.10
2023-03-01T22:42:21.185Z,49.00
2023-03-01T22:44:13.054Z,50.00
2023-03-01T22:46:15.168Z,42.40
2023-03-01T22:48:05.389Z,44.00
2023-03-01T22:49:56.001Z,41.90
2023-03-01T22:51:46.876Z,40.20
2023-03-01T22:53:37.368Z,42.10
2023-03-01T22:55:28.850Z,46.30
2023-03-01T22:57:18.805Z,46.20
2023-03-01T22:59:11.434Z,49.00
2023-03-01T23:01:01.580Z,44.00
2023-03-01T23:02:52.117Z,48.20
2023-03-01T23:04:43.294Z,47.60
2023-03-01T23:06:34.100Z,48.60
2023-03-01T23:08:24.778Z,57.20
2023-03-01T23:10:15.383Z,51.50
2023-03-01T23:12:06.896Z,46.00
2023-03-01T23:15:08.455Z,51.50
2023-03-01T23:17:02.990Z,47.60
2023-03-01T23:18:56.140Z,46.10
2023-03-01T23:22:39.433Z,42.20
2023-03-01T23:24:32.037Z,50.20
2023-03-01T23:26:27.168Z,50.20
2023-03-01T23:28:18.720Z,47.90
2023-03-01T23:30:10.762Z,52.70
2023-03-01T23:32:03.526Z,53.40
2023-03-01T23:33:55.205Z,59.50
2023-03-01T23:35:46.616Z,51.30
2023-03-01T23:37:38.435Z,49.40
2023-03-01T23:39:33.342Z,44.20
2023-03-01T23:41:27.784Z,51.30
2023-03-01T23:43:19.098Z,53.00
2023-03-01T23:45:11.137Z,55.40
2023-03-01T23:47:03.548Z,56.90
2023-03-01T23:50:48.457Z,56.50
2023-03-01T23:52:41.822Z,51.50
2023-03-01T23:54:33.395Z,57.20
2023-03-01T23:56:27.415Z,55.30
2023-03-01T23:58:20.180Z,53.40
